sensor_id;sensor_type;location;lat;lon;timestamp;temperature;humidity
19968;DHT22;10145;49.152;9.282;2024-03-25T00:00:28;6.10;99.90
19968;DHT22;10145;49.152;9.282;2024-03-25T00:02:55;6.10;99.90
19968;DHT22;10145;49.152;9.282;2024-03-25T00:05:20;6.10;99.90
19968;DHT22;10145;49.152;9.282;2024-03-25T00:07:48;6.20;99.90
19968;DHT22;10145;49.152;9.282;2024-03-25T00:10:14;6.10;99.90
19968;DHT22;10145;49.152;9.282;2024-03-25T00:12:40;6.00;99.90
19968;DHT22;10145;49.152;9.282;2024-03-25T00:15:06;6.00;99.90
19968;DHT22;10145;49.152;9.282;2024-03-25T00:17:32;6.10;99.90
19968;DHT22;10145;49.152;9.282;2024-03-25T00:19:58;6.10;99.90
19968;DHT22;10145;49.152;9.282;2024-03-25T00:22:23;6.10;99.90
19968;DHT22;10145;49.152;9.282;2024-03-25T00:24:52;6.10;99.90
19968;DHT22;10145;49.152;9.282;2024-03-25T00:27:18;6.10;99.90
19968;DHT22;10145;49.152;9.282;2024-03-25T00:29:44;6.10;99.90
19968;DHT22;10145;49.152;9.282;2024-03-25T00:32:10;6.00;99.90
19968;DHT22;10145;49.152;9.282;2024-03-25T00:34:36;6.00;99.90
19968;DHT22;10145;49.152;9.282;2024-03-25T00:37:02;6.00;99.90
19968;DHT22;10145;49.152;9.282;2024-03-25T00:39:29;6.10;99.90
19968;DHT22;10145;49.152;9.282;2024-03-25T00:41:57;6.00;99.90
19968;DHT22;10145;49.152;9.282;2024-03-25T00:44:23;6.10;99.90
19968;DHT22;10145;49.152;9.282;2024-03-25T00:46:48;6.10;99.90
19968;DHT22;10145;49.152;9.282;2024-03-25T00:49:14;5.90;99.90
19968;DHT22;10145;49.152;9.282;2024-03-25T00:51:40;6.00;99.90
19968;DHT22;10145;49.152;9.282;2024-03-25T00:54:06;6.10;99.90
19968;DHT22;10145;49.152;9.282;2024-03-25T00:56:32;6.10;99.90
19968;DHT22;10145;49.152;9.282;2024-03-25T00:58:58;6.00;99.90
19968;DHT22;10145;49.152;9.282;2024-03-25T01:01:30;6.00;99.90
19968;DHT22;10145;49.152;9.282;2024-03-25T01:03:57;6.00;99.90
19968;DHT22;10145;49.152;9.282;2024-03-25T01:06:22;6.00;99.90
19968;DHT22;10145;49.152;9.282;2024-03-25T01:08:48;6.00;99.90
19968;DHT22;10145;49.152;9.282;2024-03-25T01:11:14;5.90;99.90
19968;DHT22;10145;49.152;9.282;2024-03-25T01:13:39;5.90;99.90
19968;DHT22;10145;49.152;9.282;2024-03-25T01:16:07;5.90;99.90
19968;DHT22;10145;49.152;9.282;2024-03-25T01:18:32;5.80;99.90
19968;DHT22;10145;49.152;9.282;2024-03-25T01:20:58;5.80;99.90
19968;DHT22;10145;49.152;9.282;2024-03-25T01:23:24;5.70;99.90
19968;DHT22;10145;49.152;9.282;2024-03-25T01:25:50;5.70;99.90
19968;DHT22;10145;49.152;9.282;2024-03-25T01:28:15;5.70;99.90
19968;DHT22;10145;49.152;9.282;2024-03-25T01:30:41;5.60;99.90
19968;DHT22;10145;49.152;9.282;2024-03-25T01:33:07;5.60;99.90
19968;DHT22;10145;49.152;9.282;2024-03-25T01:35:32;5.60;99.90
19968;DHT22;10145;49.152;9.282;2024-03-25T01:37:58;5.50;99.90
19968;DHT22;10145;49.152;9.282;2024-03-25T01:40:23;5.50;99.90
19968;DHT22;10145;49.152;9.282;2024-03-25T01:42:56;5.50;99.90
19968;DHT22;10145;49.152;9.282;2024-03-25T01:45:23;5.50;99.90
19968;DHT22;10145;49.152;9.282;2024-03-25T01:47:49;5.60;99.90
19968;DHT22;10145;49.152;9.282;2024-03-25T01:50:14;5.60;99.90
19968;DHT22;10145;49.152;9.282;2024-03-25T01:52:41;5.60;99.90
19968;DHT22;10145;49.152;9.282;2024-03-25T01:55:10;5.60;99.90
19968;DHT22;10145;49.152;9.282;2024-03-25T01:57:37;5.60;99.90
19968;DHT22;10145;49.152;9.282;2024-03-25T02:00:05;5.70;99.90
19968;DHT22;10145;49.152;9.282;2024-03-25T02:02:31;5.70;99.90
19968;DHT22;10145;49.152;9.282;2024-03-25T02:04:59;5.70;99.90
19968;DHT22;10145;49.152;9.282;2024-03-25T02:07:25;5.70;99.90
19968;DHT22;10145;49.152;9.282;2024-03-25T02:09:52;5.70;99.90
19968;DHT22;10145;49.152;9.282;2024-03-25T02:12:18;5.60;99.90
19968;DHT22;10145;49.152;9.282;2024-03-25T02:14:43;5.60;99.90
19968;DHT22;10145;49.152;9.282;2024-03-25T02:17:09;5.60;99.90
19968;DHT22;10145;49.152;9.282;2024-03-25T02:19:37;5.60;99.90
19968;DHT22;10145;49.152;9.282;2024-03-25T02:22:03;5.50;99.90
19968;DHT22;10145;49.152;9.282;2024-03-25T02:24:30;5.50;99.90
19968;DHT22;10145;49.152;9.282;2024-03-25T02:26:56;5.40;99.90
19968;DHT22;10145;49.152;9.282;2024-03-25T02:29:22;5.30;99.90
19968;DHT22;10145;49.152;9.282;2024-03-25T02:31:47;5.20;99.90
19968;DHT22;10145;49.152;9.282;2024-03-25T02:34:13;5.20;99.90
19968;DHT22;10145;49.152;9.282;2024-03-25T02:36:39;5.10;99.90
19968;DHT22;10145;49.152;9.282;2024-03-25T02:39:04;5.00;99.90
19968;DHT22;10145;49.152;9.282;2024-03-25T02:41:30;4.90;99.90
19968;DHT22;10145;49.152;9.282;2024-03-25T02:43:56;4.80;99.90
19968;DHT22;10145;49.152;9.282;2024-03-25T02:46:22;4.70;99.90
19968;DHT22;10145;49.152;9.282;2024-03-25T02:48:48;4.70;99.90
19968;DHT22;10145;49.152;9.282;2024-03-25T02:51:13;4.60;99.90
19968;DHT22;10145;49.152;9.282;2024-03-25T02:53:39;4.50;99.90
19968;DHT22;10145;49.152;9.282;2024-03-25T02:56:05;4.50;99.90
19968;DHT22;10145;49.152;9.282;2024-03-25T02:58:30;4.50;99.90
19968;DHT22;10145;49.152;9.282;2024-03-25T03:00:56;4.50;99.90
19968;DHT22;10145;49.152;9.282;2024-03-25T03:03:21;4.50;99.90
19968;DHT22;10145;49.152;9.282;2024-03-25T03:05:47;4.60;99.90
19968;DHT22;10145;49.152;9.282;2024-03-25T03:08:13;4.60;99.90
19968;DHT22;10145;49.152;9.282;2024-03-25T03:10:38;4.50;99.90
19968;DHT22;10145;49.152;9.282;2024-03-25T03:13:04;4.40;99.90
19968;DHT22;10145;49.152;9.282;2024-03-25T03:15:29;4.30;99.90
19968;DHT22;10145;49.152;9.282;2024-03-25T03:17:55;4.20;99.90
19968;DHT22;10145;49.152;9.282;2024-03-25T03:20:20;4.20;99.90
19968;DHT22;10145;49.152;9.282;2024-03-25T03:22:46;4.20;99.90
19968;DHT22;10145;49.152;9.282;2024-03-25T03:25:12;4.30;99.90
19968;DHT22;10145;49.152;9.282;2024-03-25T03:27:38;4.30;99.90
19968;DHT22;10145;49.152;9.282;2024-03-25T03:30:03;4.20;99.90
19968;DHT22;10145;49.152;9.282;2024-03-25T03:32:29;4.10;99.90
19968;DHT22;10145;49.152;9.282;2024-03-25T03:34:55;4.00;99.90
19968;DHT22;10145;49.152;9.282;2024-03-25T03:37:20;3.90;99.90
19968;DHT22;10145;49.152;9.282;2024-03-25T03:39:46;3.80;99.90
19968;DHT22;10145;49.152;9.282;2024-03-25T03:42:11;3.70;99.90
19968;DHT22;10145;49.152;9.282;2024-03-25T03:44:37;3.70;99.90
19968;DHT22;10145;49.152;9.282;2024-03-25T03:47:02;3.70;99.90
19968;DHT22;10145;49.152;9.282;2024-03-25T03:49:28;3.70;99.90
19968;DHT22;10145;49.152;9.282;2024-03-25T03:51:54;3.70;99.90
19968;DHT22;10145;49.152;9.282;2024-03-25T03:54:19;3.50;99.90
19968;DHT22;10145;49.152;9.282;2024-03-25T03:56:45;3.50;99.90
19968;DHT22;10145;49.152;9.282;2024-03-25T03:59:10;3.40;99.90
19968;DHT22;10145;49.152;9.282;2024-03-25T04:01:36;3.30;99.90
19968;DHT22;10145;49.152;9.282;2024-03-25T04:04:01;3.30;99.90
19968;DHT22;10145;49.152;9.282;2024-03-25T04:06:27;3.20;99.90
19968;DHT22;10145;49.152;9.282;2024-03-25T04:08:53;3.10;99.90
19968;DHT22;10145;49.152;9.282;2024-03-25T04:11:18;3.00;99.90
19968;DHT22;10145;49.152;9.282;2024-03-25T04:13:44;2.90;99.90
19968;DHT22;10145;49.152;9.282;2024-03-25T04:16:11;2.70;99.90
19968;DHT22;10145;49.152;9.282;2024-03-25T04:18:36;2.60;99.90
19968;DHT22;10145;49.152;9.282;2024-03-25T04:21:02;2.50;99.90
19968;DHT22;10145;49.152;9.282;2024-03-25T04:23:28;2.40;99.90
19968;DHT22;10145;49.152;9.282;2024-03-25T04:25:53;2.30;99.90
19968;DHT22;10145;49.152;9.282;2024-03-25T04:28:20;2.20;99.90
19968;DHT22;10145;49.152;9.282;2024-03-25T04:30:55;2.10;99.90
19968;DHT22;10145;49.152;9.282;2024-03-25T04:33:20;2.00;99.90
19968;DHT22;10145;49.152;9.282;2024-03-25T04:35:47;2.00;99.90
19968;DHT22;10145;49.152;9.282;2024-03-25T04:38:15;2.00;99.90
19968;DHT22;10145;49.152;9.282;2024-03-25T04:40:40;2.00;99.90
19968;DHT22;10145;49.152;9.282;2024-03-25T04:43:06;1.90;99.90
19968;DHT22;10145;49.152;9.282;2024-03-25T04:45:32;1.80;99.90
19968;DHT22;10145;49.152;9.282;2024-03-25T04:47:57;1.70;99.90
19968;DHT22;10145;49.152;9.282;2024-03-25T04:50:23;1.70;99.90
19968;DHT22;10145;49.152;9.282;2024-03-25T04:52:48;1.70;99.90
19968;DHT22;10145;49.152;9.282;2024-03-25T04:55:15;1.80;99.90
19968;DHT22;10145;49.152;9.282;2024-03-25T04:57:40;1.80;99.90
19968;DHT22;10145;49.152;9.282;2024-03-25T05:00:06;1.90;99.90
19968;DHT22;10145;49.152;9.282;2024-03-25T05:02:32;2.00;99.90
19968;DHT22;10145;49.152;9.282;2024-03-25T05:04:58;2.10;99.90
19968;DHT22;10145;49.152;9.282;2024-03-25T05:07:23;2.10;99.90
19968;DHT22;10145;49.152;9.282;2024-03-25T05:09:49;2.20;99.90
19968;DHT22;10145;49.152;9.282;2024-03-25T05:12:14;2.40;99.90
19968;DHT22;10145;49.152;9.282;2024-03-25T05:14:40;2.60;99.90
19968;DHT22;10145;49.152;9.282;2024-03-25T05:17:05;2.50;99.90
19968;DHT22;10145;49.152;9.282;2024-03-25T05:19:33;2.60;99.90
19968;DHT22;10145;49.152;9.282;2024-03-25T05:21:59;2.60;99.90
19968;DHT22;10145;49.152;9.282;2024-03-25T05:24:24;2.70;99.90
19968;DHT22;10145;49.152;9.282;2024-03-25T05:26:50;2.50;99.90
19968;DHT22;10145;49.152;9.282;2024-03-25T05:29:15;2.50;99.90
19968;DHT22;10145;49.152;9.282;2024-03-25T05:31:59;2.50;99.90
19968;DHT22;10145;49.152;9.282;2024-03-25T05:34:25;2.40;99.90
19968;DHT22;10145;49.152;9.282;2024-03-25T05:36:51;2.30;99.90
19968;DHT22;10145;49.152;9.282;2024-03-25T05:39:16;2.20;99.90
19968;DHT22;10145;49.152;9.282;2024-03-25T05:41:42;2.10;99.90
19968;DHT22;10145;49.152;9.282;2024-03-25T05:44:08;2.10;99.90
19968;DHT22;10145;49.152;9.282;2024-03-25T05:46:33;2.00;99.90
19968;DHT22;10145;49.152;9.282;2024-03-25T05:49:05;1.90;99.90
19968;DHT22;10145;49.152;9.282;2024-03-25T05:51:33;2.00;99.90
19968;DHT22;10145;49.152;9.282;2024-03-25T05:53:59;2.00;99.90
19968;DHT22;10145;49.152;9.282;2024-03-25T05:56:25;2.00;99.90
19968;DHT22;10145;49.152;9.282;2024-03-25T05:58:56;2.30;99.90
19968;DHT22;10145;49.152;9.282;2024-03-25T06:01:22;2.00;99.90
19968;DHT22;10145;49.152;9.282;2024-03-25T06:03:48;2.00;99.90
19968;DHT22;10145;49.152;9.282;2024-03-25T06:06:14;2.00;99.90
19968;DHT22;10145;49.152;9.282;2024-03-25T06:08:39;2.10;99.90
19968;DHT22;10145;49.152;9.282;2024-03-25T06:11:05;2.10;99.90
19968;DHT22;10145;49.152;9.282;2024-03-25T06:13:31;2.10;99.90
19968;DHT22;10145;49.152;9.282;2024-03-25T06:15:59;2.20;99.90
19968;DHT22;10145;49.152;9.282;2024-03-25T06:18:25;2.20;99.90
19968;DHT22;10145;49.152;9.282;2024-03-25T06:20:51;2.20;99.90
19968;DHT22;10145;49.152;9.282;2024-03-25T06:23:27;2.30;99.90
19968;DHT22;10145;49.152;9.282;2024-03-25T06:25:53;2.40;99.90
19968;DHT22;10145;49.152;9.282;2024-03-25T06:28:20;2.60;99.90
19968;DHT22;10145;49.152;9.282;2024-03-25T06:30:46;2.40;99.90
19968;DHT22;10145;49.152;9.282;2024-03-25T06:33:31;2.40;99.90
19968;DHT22;10145;49.152;9.282;2024-03-25T06:36:16;2.40;99.90
19968;DHT22;10145;49.152;9.282;2024-03-25T06:38:41;2.30;99.90
19968;DHT22;10145;49.152;9.282;2024-03-25T06:41:07;2.50;99.90
19968;DHT22;10145;49.152;9.282;2024-03-25T06:43:33;2.30;99.90
19968;DHT22;10145;49.152;9.282;2024-03-25T06:45:59;2.60;99.90
19968;DHT22;10145;49.152;9.282;2024-03-25T06:48:25;2.40;99.90
19968;DHT22;10145;49.152;9.282;2024-03-25T06:50:57;2.40;99.90
19968;DHT22;10145;49.152;9.282;2024-03-25T06:53:23;2.40;99.90
19968;DHT22;10145;49.152;9.282;2024-03-25T06:55:55;2.40;99.90
19968;DHT22;10145;49.152;9.282;2024-03-25T06:58:22;2.50;99.90
19968;DHT22;10145;49.152;9.282;2024-03-25T07:00:48;2.80;99.90
19968;DHT22;10145;49.152;9.282;2024-03-25T07:03:18;2.90;99.90
19968;DHT22;10145;49.152;9.282;2024-03-25T07:05:47;2.80;99.90
19968;DHT22;10145;49.152;9.282;2024-03-25T07:08:14;3.00;99.90
19968;DHT22;10145;49.152;9.282;2024-03-25T07:10:43;3.10;99.90
19968;DHT22;10145;49.152;9.282;2024-03-25T07:13:09;3.20;99.90
19968;DHT22;10145;49.152;9.282;2024-03-25T07:15:35;3.40;99.90
19968;DHT22;10145;49.152;9.282;2024-03-25T07:18:00;3.60;99.90
19968;DHT22;10145;49.152;9.282;2024-03-25T07:20:26;3.70;99.90
19968;DHT22;10145;49.152;9.282;2024-03-25T07:22:52;3.90;99.90
19968;DHT22;10145;49.152;9.282;2024-03-25T07:25:34;4.10;99.90
19968;DHT22;10145;49.152;9.282;2024-03-25T07:31:16;4.30;99.90
19968;DHT22;10145;49.152;9.282;2024-03-25T07:33:41;4.50;99.90
19968;DHT22;10145;49.152;9.282;2024-03-25T07:36:07;4.60;99.90
19968;DHT22;10145;49.152;9.282;2024-03-25T07:38:32;4.70;99.90
19968;DHT22;10145;49.152;9.282;2024-03-25T07:41:06;4.80;99.90
19968;DHT22;10145;49.152;9.282;2024-03-25T07:43:31;5.00;99.90
19968;DHT22;10145;49.152;9.282;2024-03-25T07:45:57;5.20;99.90
19968;DHT22;10145;49.152;9.282;2024-03-25T07:48:22;5.20;99.90
19968;DHT22;10145;49.152;9.282;2024-03-25T07:50:48;5.50;99.90
19968;DHT22;10145;49.152;9.282;2024-03-25T07:53:14;5.70;99.90
19968;DHT22;10145;49.152;9.282;2024-03-25T07:55:40;5.90;99.90
19968;DHT22;10145;49.152;9.282;2024-03-25T07:58:05;6.00;99.90
19968;DHT22;10145;49.152;9.282;2024-03-25T08:00:31;6.10;99.90
19968;DHT22;10145;49.152;9.282;2024-03-25T08:02:56;6.20;99.90
19968;DHT22;10145;49.152;9.282;2024-03-25T08:05:22;6.00;99.90
19968;DHT22;10145;49.152;9.282;2024-03-25T08:07:48;6.10;99.90
19968;DHT22;10145;49.152;9.282;2024-03-25T08:10:13;5.90;99.90
19968;DHT22;10145;49.152;9.282;2024-03-25T08:12:39;5.90;99.90
19968;DHT22;10145;49.152;9.282;2024-03-25T08:15:05;5.90;99.90
19968;DHT22;10145;49.152;9.282;2024-03-25T08:17:30;6.20;99.90
19968;DHT22;10145;49.152;9.282;2024-03-25T08:19:56;6.30;99.90
19968;DHT22;10145;49.152;9.282;2024-03-25T08:22:22;6.60;99.90
19968;DHT22;10145;49.152;9.282;2024-03-25T08:24:47;6.60;99.90
19968;DHT22;10145;49.152;9.282;2024-03-25T08:27:13;6.60;99.90
19968;DHT22;10145;49.152;9.282;2024-03-25T08:29:38;6.60;99.90
19968;DHT22;10145;49.152;9.282;2024-03-25T08:32:04;6.60;99.90
19968;DHT22;10145;49.152;9.282;2024-03-25T08:34:30;6.60;99.90
19968;DHT22;10145;49.152;9.282;2024-03-25T08:36:56;6.70;99.90
19968;DHT22;10145;49.152;9.282;2024-03-25T08:39:21;6.70;99.90
19968;DHT22;10145;49.152;9.282;2024-03-25T08:41:47;6.80;99.90
19968;DHT22;10145;49.152;9.282;2024-03-25T08:44:12;6.80;99.90
19968;DHT22;10145;49.152;9.282;2024-03-25T08:46:39;6.80;99.90
19968;DHT22;10145;49.152;9.282;2024-03-25T08:49:04;6.80;99.90
19968;DHT22;10145;49.152;9.282;2024-03-25T08:51:30;6.90;99.90
19968;DHT22;10145;49.152;9.282;2024-03-25T08:53:56;6.60;99.90
19968;DHT22;10145;49.152;9.282;2024-03-25T08:56:21;6.80;99.90
19968;DHT22;10145;49.152;9.282;2024-03-25T08:58:47;6.80;99.90
19968;DHT22;10145;49.152;9.282;2024-03-25T09:01:12;6.90;99.90
19968;DHT22;10145;49.152;9.282;2024-03-25T09:03:41;7.00;99.90
19968;DHT22;10145;49.152;9.282;2024-03-25T09:06:07;7.10;99.90
19968;DHT22;10145;49.152;9.282;2024-03-25T09:08:33;7.20;99.90
19968;DHT22;10145;49.152;9.282;2024-03-25T09:11:19;7.30;99.90
19968;DHT22;10145;49.152;9.282;2024-03-25T09:13:44;7.30;99.90
19968;DHT22;10145;49.152;9.282;2024-03-25T09:16:10;7.40;99.90
19968;DHT22;10145;49.152;9.282;2024-03-25T09:18:36;7.40;99.90
19968;DHT22;10145;49.152;9.282;2024-03-25T09:21:01;7.60;99.90
19968;DHT22;10145;49.152;9.282;2024-03-25T09:23:27;7.70;99.90
19968;DHT22;10145;49.152;9.282;2024-03-25T09:25:56;7.70;99.90
19968;DHT22;10145;49.152;9.282;2024-03-25T09:28:21;7.90;99.90
19968;DHT22;10145;49.152;9.282;2024-03-25T09:30:50;7.90;99.90
19968;DHT22;10145;49.152;9.282;2024-03-25T09:33:16;8.00;99.90
19968;DHT22;10145;49.152;9.282;2024-03-25T09:35:42;8.10;99.90
19968;DHT22;10145;49.152;9.282;2024-03-25T09:38:07;8.00;99.90
19968;DHT22;10145;49.152;9.282;2024-03-25T09:40:40;8.00;99.90
19968;DHT22;10145;49.152;9.282;2024-03-25T09:43:13;8.00;99.90
19968;DHT22;10145;49.152;9.282;2024-03-25T09:45:40;8.20;99.90
19968;DHT22;10145;49.152;9.282;2024-03-25T09:48:06;8.10;99.90
19968;DHT22;10145;49.152;9.282;2024-03-25T09:50:32;8.30;99.90
19968;DHT22;10145;49.152;9.282;2024-03-25T09:52:58;8.50;99.90
19968;DHT22;10145;49.152;9.282;2024-03-25T09:55:24;8.80;99.90
19968;DHT22;10145;49.152;9.282;2024-03-25T09:57:50;8.80;99.90
19968;DHT22;10145;49.152;9.282;2024-03-25T10:00:17;9.00;99.90
19968;DHT22;10145;49.152;9.282;2024-03-25T10:02:44;9.00;99.90
19968;DHT22;10145;49.152;9.282;2024-03-25T10:05:10;9.20;99.90
19968;DHT22;10145;49.152;9.282;2024-03-25T10:07:36;9.20;99.90
19968;DHT22;10145;49.152;9.282;2024-03-25T10:10:05;9.40;99.90
19968;DHT22;10145;49.152;9.282;2024-03-25T10:12:32;9.70;99.90
19968;DHT22;10145;49.152;9.282;2024-03-25T10:14:57;9.90;99.90
19968;DHT22;10145;49.152;9.282;2024-03-25T10:17:24;10.10;99.90
19968;DHT22;10145;49.152;9.282;2024-03-25T10:19:50;10.20;99.90
19968;DHT22;10145;49.152;9.282;2024-03-25T10:22:16;10.40;99.90
19968;DHT22;10145;49.152;9.282;2024-03-25T10:24:42;10.50;99.90
19968;DHT22;10145;49.152;9.282;2024-03-25T10:27:21;10.60;99.90
19968;DHT22;10145;49.152;9.282;2024-03-25T10:29:54;10.40;99.90
19968;DHT22;10145;49.152;9.282;2024-03-25T10:32:22;10.40;99.90
19968;DHT22;10145;49.152;9.282;2024-03-25T10:34:50;10.40;99.90
19968;DHT22;10145;49.152;9.282;2024-03-25T10:37:17;10.30;99.90
19968;DHT22;10145;49.152;9.282;2024-03-25T10:39:50;10.40;99.90
19968;DHT22;10145;49.152;9.282;2024-03-25T10:42:19;10.30;99.90
19968;DHT22;10145;49.152;9.282;2024-03-25T10:44:47;10.30;99.90
19968;DHT22;10145;49.152;9.282;2024-03-25T10:47:23;10.30;99.90
19968;DHT22;10145;49.152;9.282;2024-03-25T10:49:57;10.10;99.90
19968;DHT22;10145;49.152;9.282;2024-03-25T10:52:27;10.00;99.90
19968;DHT22;10145;49.152;9.282;2024-03-25T10:54:55;9.90;99.90
19968;DHT22;10145;49.152;9.282;2024-03-25T10:57:21;10.00;99.90
19968;DHT22;10145;49.152;9.282;2024-03-25T10:59:49;10.30;99.90
19968;DHT22;10145;49.152;9.282;2024-03-25T11:02:15;10.40;99.90
19968;DHT22;10145;49.152;9.282;2024-03-25T11:04:44;10.50;99.90
19968;DHT22;10145;49.152;9.282;2024-03-25T11:07:12;10.70;99.90
19968;DHT22;10145;49.152;9.282;2024-03-25T11:09:41;10.80;99.90
19968;DHT22;10145;49.152;9.282;2024-03-25T11:12:10;10.90;99.90
19968;DHT22;10145;49.152;9.282;2024-03-25T11:14:37;11.10;99.90
19968;DHT22;10145;49.152;9.282;2024-03-25T11:17:02;10.90;99.90
19968;DHT22;10145;49.152;9.282;2024-03-25T11:19:29;10.90;99.90
19968;DHT22;10145;49.152;9.282;2024-03-25T11:22:10;10.90;99.90
19968;DHT22;10145;49.152;9.282;2024-03-25T11:24:36;10.80;99.90
19968;DHT22;10145;49.152;9.282;2024-03-25T11:27:06;10.90;99.90
19968;DHT22;10145;49.152;9.282;2024-03-25T11:29:33;10.90;99.90
19968;DHT22;10145;49.152;9.282;2024-03-25T11:32:05;10.90;99.90
19968;DHT22;10145;49.152;9.282;2024-03-25T11:34:31;10.90;99.90
19968;DHT22;10145;49.152;9.282;2024-03-25T11:36:57;11.00;99.90
19968;DHT22;10145;49.152;9.282;2024-03-25T11:39:23;10.80;99.90
19968;DHT22;10145;49.152;9.282;2024-03-25T11:41:49;10.90;99.90
19968;DHT22;10145;49.152;9.282;2024-03-25T11:44:16;11.10;99.90
19968;DHT22;10145;49.152;9.282;2024-03-25T11:46:43;11.10;99.90
19968;DHT22;10145;49.152;9.282;2024-03-25T11:49:14;11.20;99.90
19968;DHT22;10145;49.152;9.282;2024-03-25T11:51:40;11.20;99.90
19968;DHT22;10145;49.152;9.282;2024-03-25T11:54:07;11.50;99.90
19968;DHT22;10145;49.152;9.282;2024-03-25T11:56:33;11.40;99.90
19968;DHT22;10145;49.152;9.282;2024-03-25T11:59:02;11.40;99.90
19968;DHT22;10145;49.152;9.282;2024-03-25T12:01:31;11.30;99.90
19968;DHT22;10145;49.152;9.282;2024-03-25T12:03:56;11.60;99.90
19968;DHT22;10145;49.152;9.282;2024-03-25T12:06:22;11.90;99.90
19968;DHT22;10145;49.152;9.282;2024-03-25T12:08:48;12.00;99.90
19968;DHT22;10145;49.152;9.282;2024-03-25T12:11:32;12.10;99.90
19968;DHT22;10145;49.152;9.282;2024-03-25T12:13:58;11.80;99.90
19968;DHT22;10145;49.152;9.282;2024-03-25T12:16:24;12.00;99.90
19968;DHT22;10145;49.152;9.282;2024-03-25T12:18:50;12.20;99.90
19968;DHT22;10145;49.152;9.282;2024-03-25T12:21:17;12.40;99.90
19968;DHT22;10145;49.152;9.282;2024-03-25T12:23:43;12.90;99.90
19968;DHT22;10145;49.152;9.282;2024-03-25T12:26:09;12.80;99.90
19968;DHT22;10145;49.152;9.282;2024-03-25T12:28:35;12.80;99.90
19968;DHT22;10145;49.152;9.282;2024-03-25T12:31:02;12.80;99.90
19968;DHT22;10145;49.152;9.282;2024-03-25T12:33:28;12.90;99.90
19968;DHT22;10145;49.152;9.282;2024-03-25T12:35:54;13.10;99.90
19968;DHT22;10145;49.152;9.282;2024-03-25T12:38:28;13.10;99.90
19968;DHT22;10145;49.152;9.282;2024-03-25T12:41:00;13.40;99.90
19968;DHT22;10145;49.152;9.282;2024-03-25T12:43:30;13.50;99.90
19968;DHT22;10145;49.152;9.282;2024-03-25T12:45:57;14.00;99.90
19968;DHT22;10145;49.152;9.282;2024-03-25T12:48:23;14.20;99.90
19968;DHT22;10145;49.152;9.282;2024-03-25T12:50:48;14.40;99.90
19968;DHT22;10145;49.152;9.282;2024-03-25T12:53:17;14.50;99.90
19968;DHT22;10145;49.152;9.282;2024-03-25T12:55:43;14.60;99.90
19968;DHT22;10145;49.152;9.282;2024-03-25T12:58:08;14.70;99.90
19968;DHT22;10145;49.152;9.282;2024-03-25T13:00:34;14.60;99.90
19968;DHT22;10145;49.152;9.282;2024-03-25T13:03:00;14.50;99.90
19968;DHT22;10145;49.152;9.282;2024-03-25T13:05:27;14.80;99.90
19968;DHT22;10145;49.152;9.282;2024-03-25T13:07:53;15.30;99.90
19968;DHT22;10145;49.152;9.282;2024-03-25T13:10:19;15.40;99.90
19968;DHT22;10145;49.152;9.282;2024-03-25T13:12:45;15.40;99.20
19968;DHT22;10145;49.152;9.282;2024-03-25T13:15:11;15.20;96.60
19968;DHT22;10145;49.152;9.282;2024-03-25T13:17:37;15.20;97.60
19968;DHT22;10145;49.152;9.282;2024-03-25T13:20:02;15.10;99.50
19968;DHT22;10145;49.152;9.282;2024-03-25T13:22:30;15.20;97.90
19968;DHT22;10145;49.152;9.282;2024-03-25T13:24:57;15.80;93.80
19968;DHT22;10145;49.152;9.282;2024-03-25T13:27:22;18.20;95.00
19968;DHT22;10145;49.152;9.282;2024-03-25T13:29:48;20.80;91.80
19968;DHT22;10145;49.152;9.282;2024-03-25T13:32:14;22.50;79.70
19968;DHT22;10145;49.152;9.282;2024-03-25T13:34:39;23.90;70.80
19968;DHT22;10145;49.152;9.282;2024-03-25T13:37:05;24.90;67.40
19968;DHT22;10145;49.152;9.282;2024-03-25T13:39:31;24.90;67.30
19968;DHT22;10145;49.152;9.282;2024-03-25T13:41:57;26.00;65.20
19968;DHT22;10145;49.152;9.282;2024-03-25T13:44:23;26.10;69.20
19968;DHT22;10145;49.152;9.282;2024-03-25T13:46:50;26.00;61.40
19968;DHT22;10145;49.152;9.282;2024-03-25T13:49:16;26.50;65.60
19968;DHT22;10145;49.152;9.282;2024-03-25T13:51:43;27.80;62.40
19968;DHT22;10145;49.152;9.282;2024-03-25T13:54:09;28.40;66.50
19968;DHT22;10145;49.152;9.282;2024-03-25T13:56:35;28.40;60.30
19968;DHT22;10145;49.152;9.282;2024-03-25T13:59:00;28.90;62.00
19968;DHT22;10145;49.152;9.282;2024-03-25T14:01:26;29.50;54.90
19968;DHT22;10145;49.152;9.282;2024-03-25T14:03:51;29.70;54.50
19968;DHT22;10145;49.152;9.282;2024-03-25T14:06:17;29.70;52.20
19968;DHT22;10145;49.152;9.282;2024-03-25T14:08:42;29.40;55.00
19968;DHT22;10145;49.152;9.282;2024-03-25T14:11:09;29.60;56.60
19968;DHT22;10145;49.152;9.282;2024-03-25T14:13:35;30.00;48.50
19968;DHT22;10145;49.152;9.282;2024-03-25T14:16:01;29.10;48.70
19968;DHT22;10145;49.152;9.282;2024-03-25T14:18:27;29.10;49.00
19968;DHT22;10145;49.152;9.282;2024-03-25T14:20:53;30.10;57.40
19968;DHT22;10145;49.152;9.282;2024-03-25T14:23:18;31.10;48.80
19968;DHT22;10145;49.152;9.282;2024-03-25T14:25:44;31.20;47.50
19968;DHT22;10145;49.152;9.282;2024-03-25T14:28:10;31.80;51.80
19968;DHT22;10145;49.152;9.282;2024-03-25T14:30:36;32.10;57.20
19968;DHT22;10145;49.152;9.282;2024-03-25T14:33:01;32.10;56.70
19968;DHT22;10145;49.152;9.282;2024-03-25T14:35:27;32.30;44.60
19968;DHT22;10145;49.152;9.282;2024-03-25T14:37:53;31.90;49.30
19968;DHT22;10145;49.152;9.282;2024-03-25T14:40:19;31.20;46.70
19968;DHT22;10145;49.152;9.282;2024-03-25T14:42:45;30.80;48.90
19968;DHT22;10145;49.152;9.282;2024-03-25T14:45:10;31.20;47.70
19968;DHT22;10145;49.152;9.282;2024-03-25T14:47:36;31.50;47.40
19968;DHT22;10145;49.152;9.282;2024-03-25T14:50:02;31.10;44.00
19968;DHT22;10145;49.152;9.282;2024-03-25T14:52:30;31.30;48.40
19968;DHT22;10145;49.152;9.282;2024-03-25T14:54:56;31.50;46.70
19968;DHT22;10145;49.152;9.282;2024-03-25T14:57:21;31.80;51.70
19968;DHT22;10145;49.152;9.282;2024-03-25T14:59:47;32.20;43.80
19968;DHT22;10145;49.152;9.282;2024-03-25T15:02:13;32.10;44.60
19968;DHT22;10145;49.152;9.282;2024-03-25T15:04:42;31.10;48.00
19968;DHT22;10145;49.152;9.282;2024-03-25T15:07:10;30.90;47.00
19968;DHT22;10145;49.152;9.282;2024-03-25T15:09:36;31.10;48.20
19968;DHT22;10145;49.152;9.282;2024-03-25T15:12:02;30.80;47.30
19968;DHT22;10145;49.152;9.282;2024-03-25T15:14:28;30.20;44.60
19968;DHT22;10145;49.152;9.282;2024-03-25T15:16:59;30.00;46.10
19968;DHT22;10145;49.152;9.282;2024-03-25T15:19:25;28.70;49.60
19968;DHT22;10145;49.152;9.282;2024-03-25T15:21:51;27.40;50.10
19968;DHT22;10145;49.152;9.282;2024-03-25T15:24:17;26.50;52.10
19968;DHT22;10145;49.152;9.282;2024-03-25T15:26:43;26.00;49.60
19968;DHT22;10145;49.152;9.282;2024-03-25T15:29:08;25.30;53.40
19968;DHT22;10145;49.152;9.282;2024-03-25T15:31:34;26.30;53.40
19968;DHT22;10145;49.152;9.282;2024-03-25T15:34:01;27.00;52.90
19968;DHT22;10145;49.152;9.282;2024-03-25T15:36:27;27.20;54.50
19968;DHT22;10145;49.152;9.282;2024-03-25T15:38:56;26.90;50.30